createdAt,value
2018-06-17T00:00:34.877Z,0.00
2018-06-17T00:01:34.855Z,0.00
2018-06-17T00:02:34.859Z,0.00
2018-06-17T00:03:34.844Z,0.00
2018-06-17T00:04:34.831Z,0.00
2018-06-17T00:05:34.812Z,0.00
2018-06-17T00:06:34.797Z,0.00
2018-06-17T00:07:34.784Z,0.00
2018-06-17T00:08:34.778Z,0.00
2018-06-17T00:09:34.761Z,0.00
2018-06-17T00:10:34.758Z,0.00
2018-06-17T00:11:34.749Z,0.00
2018-06-17T00:12:34.726Z,0.00
2018-06-17T00:13:34.713Z,0.00
2018-06-17T00:14:34.694Z,0.00
2018-06-17T00:15:34.685Z,0.00
2018-06-17T00:16:34.683Z,0.00
2018-06-17T00:17:34.659Z,0.00
2018-06-17T00:18:34.659Z,0.00
2018-06-17T00:19:34.634Z,0.00
2018-06-17T00:20:34.628Z,0.00
2018-06-17T00:21:34.621Z,0.00
2018-06-17T00:22:34.602Z,0.00
2018-06-17T00:23:34.591Z,0.00
2018-06-17T00:24:34.582Z,0.00
2018-06-17T00:25:34.570Z,0.00
2018-06-17T00:26:34.556Z,0.00
2018-06-17T00:27:34.546Z,0.00
2018-06-17T00:28:34.531Z,0.00
2018-06-17T00:29:34.523Z,0.00
2018-06-17T00:30:34.506Z,0.00
2018-06-17T00:31:34.486Z,0.00
2018-06-17T00:32:34.477Z,0.00
2018-06-17T00:33:34.467Z,0.00
2018-06-17T00:34:34.448Z,0.00
2018-06-17T00:35:34.444Z,0.00
2018-06-17T00:36:34.426Z,0.00
2018-06-17T00:37:34.414Z,0.00
2018-06-17T00:38:34.411Z,0.00
2018-06-17T00:39:34.390Z,0.00
2018-06-17T00:40:34.381Z,0.00
2018-06-17T00:41:34.365Z,0.00
2018-06-17T00:42:34.348Z,0.00
2018-06-17T00:43:34.340Z,0.00
2018-06-17T00:44:34.326Z,0.00
2018-06-17T00:45:34.310Z,0.00
2018-06-17T00:46:34.302Z,0.00
2018-06-17T00:47:34.297Z,0.00
2018-06-17T00:48:34.294Z,0.00
2018-06-17T00:49:34.267Z,0.00
2018-06-17T00:50:34.250Z,0.00
2018-06-17T00:51:34.241Z,0.00
2018-06-17T00:52:34.228Z,0.00
2018-06-17T00:53:34.214Z,0.00
2018-06-17T00:54:34.207Z,0.00
2018-06-17T00:55:34.187Z,0.00
2018-06-17T00:56:34.174Z,0.00
2018-06-17T00:57:34.155Z,0.00
2018-06-17T00:58:34.145Z,0.00
2018-06-17T00:59:34.138Z,0.00
2018-06-17T01:00:34.120Z,0.00
2018-06-17T01:01:34.106Z,0.00
2018-06-17T01:02:34.100Z,0.00
2018-06-17T01:03:34.092Z,0.00
2018-06-17T01:04:34.066Z,0.00
2018-06-17T01:05:34.055Z,0.00
2018-06-17T01:06:34.053Z,0.00
2018-06-17T01:07:34.041Z,0.00
2018-06-17T01:08:34.022Z,0.00
2018-06-17T01:09:34.037Z,0.00
2018-06-17T01:10:33.998Z,0.00
2018-06-17T01:11:33.988Z,0.00
2018-06-17T01:12:33.966Z,0.00
2018-06-17T01:13:33.966Z,0.00
2018-06-17T01:14:33.948Z,0.00
2018-06-17T01:15:33.941Z,0.00
2018-06-17T01:16:33.919Z,0.00
2018-06-17T01:17:33.913Z,0.00
2018-06-17T01:18:33.900Z,0.00
2018-06-17T01:19:33.950Z,0.00
2018-06-17T01:20:33.868Z,0.00
2018-06-17T01:21:33.857Z,0.00
2018-06-17T01:22:33.849Z,0.00
2018-06-17T01:23:33.932Z,0.00
2018-06-17T01:24:33.812Z,0.00
2018-06-17T01:25:33.856Z,0.00
2018-06-17T01:26:33.786Z,0.00
2018-06-17T01:27:33.831Z,0.00
2018-06-17T01:28:33.767Z,0.00
2018-06-17T01:29:33.758Z,0.00
2018-06-17T01:30:33.745Z,0.00
2018-06-17T01:31:33.777Z,0.00
2018-06-17T01:32:33.717Z,0.00
2018-06-17T01:33:33.700Z,0.00
2018-06-17T01:34:33.688Z,0.00
2018-06-17T01:35:33.675Z,0.00
2018-06-17T01:36:33.659Z,0.00
2018-06-17T01:37:33.646Z,0.00
2018-06-17T01:38:33.638Z,0.00
2018-06-17T01:39:33.629Z,0.00
2018-06-17T01:40:33.611Z,0.00
2018-06-17T01:41:33.594Z,0.00
2018-06-17T01:42:33.579Z,0.00
2018-06-17T01:43:33.575Z,0.00
2018-06-17T01:44:33.557Z,0.00
2018-06-17T01:45:33.545Z,0.00
2018-06-17T01:46:33.533Z,0.00
2018-06-17T01:47:33.522Z,0.00
2018-06-17T01:48:33.509Z,0.00
2018-06-17T01:49:33.493Z,0.00
2018-06-17T01:50:33.478Z,0.00
2018-06-17T01:51:33.470Z,0.00
2018-06-17T01:52:33.460Z,0.00
2018-06-17T01:53:33.435Z,0.00
2018-06-17T01:54:33.477Z,0.00
2018-06-17T01:55:33.422Z,0.00
2018-06-17T01:56:33.402Z,0.00
2018-06-17T01:57:33.388Z,0.00
2018-06-17T01:58:33.377Z,0.00
2018-06-17T01:59:33.362Z,0.00
2018-06-17T02:00:33.345Z,0.00
2018-06-17T02:01:33.330Z,0.00
2018-06-17T02:02:33.319Z,0.00
2018-06-17T02:03:33.307Z,0.00
2018-06-17T02:04:33.287Z,0.00
2018-06-17T02:05:33.276Z,0.00
2018-06-17T02:06:33.267Z,0.00
2018-06-17T02:07:33.251Z,0.00
2018-06-17T02:08:33.243Z,0.00
2018-06-17T02:09:33.219Z,0.00
2018-06-17T02:10:33.207Z,0.00
2018-06-17T02:11:33.197Z,0.00
2018-06-17T02:12:33.189Z,0.00
2018-06-17T02:13:33.171Z,0.00
2018-06-17T02:14:33.158Z,0.00
2018-06-17T02:15:33.142Z,0.00
2018-06-17T02:16:33.126Z,0.00
2018-06-17T02:17:33.117Z,0.00
2018-06-17T02:18:33.114Z,0.00
2018-06-17T02:19:33.100Z,0.00
2018-06-17T02:20:33.075Z,0.00
2018-06-17T02:21:33.063Z,0.00
2018-06-17T02:22:33.051Z,0.00
2018-06-17T02:23:33.034Z,0.00
2018-06-17T02:24:33.018Z,0.00
2018-06-17T02:25:33.011Z,0.00
2018-06-17T02:26:33.002Z,0.00
2018-06-17T02:27:32.991Z,0.00
2018-06-17T02:28:32.969Z,0.00
2018-06-17T02:29:32.947Z,0.00
2018-06-17T02:30:32.939Z,4.00
2018-06-17T02:31:32.929Z,4.00
2018-06-17T02:32:32.905Z,4.00
2018-06-17T02:33:32.903Z,0.00
2018-06-17T02:34:32.877Z,0.00
2018-06-17T02:35:32.868Z,4.00
2018-06-17T02:36:32.854Z,4.00
2018-06-17T02:37:32.846Z,0.00
2018-06-17T02:38:32.825Z,4.00
2018-06-17T02:39:32.810Z,4.00
2018-06-17T02:40:32.802Z,8.00
2018-06-17T02:41:32.787Z,4.00
2018-06-17T02:42:32.772Z,8.00
2018-06-17T02:43:32.755Z,4.00
2018-06-17T02:44:32.737Z,8.00
2018-06-17T02:45:32.727Z,8.00
2018-06-17T02:46:32.721Z,8.00
2018-06-17T02:47:32.708Z,12.00
2018-06-17T02:48:32.690Z,8.00
2018-06-17T02:49:32.671Z,12.00
2018-06-17T02:50:32.762Z,12.00
2018-06-17T02:51:32.639Z,16.00
2018-06-17T02:52:32.664Z,16.00
2018-06-17T02:53:32.620Z,20.00
2018-06-17T02:54:32.752Z,24.00
2018-06-17T02:55:32.592Z,24.00
2018-06-17T02:56:32.569Z,24.00
2018-06-17T02:57:32.564Z,24.00
2018-06-17T02:58:32.646Z,28.00
2018-06-17T02:59:32.534Z,28.00
2018-06-17T03:00:32.562Z,36.00
2018-06-17T03:01:32.512Z,36.00
2018-06-17T03:02:32.490Z,40.00
2018-06-17T03:03:32.472Z,48.00
2018-06-17T03:04:32.461Z,52.00
2018-06-17T03:05:32.454Z,60.00
2018-06-17T03:06:32.436Z,64.00
2018-06-17T03:07:32.426Z,72.00
2018-06-17T03:08:32.405Z,76.00
2018-06-17T03:09:32.393Z,88.00
2018-06-17T03:10:32.380Z,92.00
2018-06-17T03:11:32.356Z,100.00
2018-06-17T03:12:32.353Z,112.00
2018-06-17T03:13:32.335Z,120.00
2018-06-17T03:14:32.322Z,132.00
2018-06-17T03:15:32.302Z,140.00
2018-06-17T03:16:32.314Z,152.00
2018-06-17T03:17:32.269Z,160.00
2018-06-17T03:18:32.267Z,172.00
2018-06-17T03:19:32.252Z,184.00
2018-06-17T03:20:32.228Z,192.00
2018-06-17T03:21:32.224Z,204.00
2018-06-17T03:22:32.199Z,216.00
2018-06-17T03:23:32.187Z,228.00
2018-06-17T03:24:32.180Z,240.00
2018-06-17T03:25:32.164Z,252.00
2018-06-17T03:26:32.145Z,264.00
2018-06-17T03:27:32.132Z,276.00
2018-06-17T03:28:32.129Z,292.00
2018-06-17T03:29:32.111Z,300.00
2018-06-17T03:30:32.095Z,312.00
2018-06-17T03:31:32.082Z,324.00
2018-06-17T03:32:32.066Z,336.00
2018-06-17T03:33:32.052Z,348.00
2018-06-17T03:34:32.037Z,364.00
2018-06-17T03:35:32.024Z,376.00
2018-06-17T03:36:32.012Z,396.00
2018-06-17T03:37:31.998Z,408.00
2018-06-17T03:38:31.982Z,420.00
2018-06-17T03:39:31.967Z,436.00
2018-06-17T03:40:31.947Z,456.00
2018-06-17T03:41:31.931Z,476.00
2018-06-17T03:42:31.928Z,500.00
2018-06-17T03:43:31.910Z,524.00
2018-06-17T03:44:31.896Z,540.00
2018-06-17T03:45:31.888Z,564.00
2018-06-17T03:46:31.871Z,588.00
2018-06-17T03:47:31.858Z,608.00
2018-06-17T03:48:31.842Z,620.00
2018-06-17T03:49:31.826Z,636.00
2018-06-17T03:50:31.814Z,664.00
2018-06-17T03:51:31.798Z,676.00
2018-06-17T03:52:31.778Z,652.00
2018-06-17T03:53:31.773Z,628.00
2018-06-17T03:54:31.761Z,620.00
2018-06-17T03:55:31.747Z,632.00
2018-06-17T03:56:31.721Z,692.00
2018-06-17T03:57:31.715Z,768.00
2018-06-17T03:58:31.699Z,816.00
2018-06-17T03:59:31.692Z,828.00
2018-06-17T04:00:31.674Z,836.00
2018-06-17T04:01:31.659Z,864.00
2018-06-17T04:02:31.648Z,848.00
2018-06-17T04:03:31.639Z,836.00
2018-06-17T04:04:31.619Z,844.00
2018-06-17T04:05:31.609Z,860.00
2018-06-17T04:06:31.593Z,876.00
2018-06-17T04:07:31.582Z,880.00
2018-06-17T04:08:31.561Z,876.00
2018-06-17T04:09:31.543Z,908.00
2018-06-17T04:10:31.540Z,964.00
2018-06-17T04:11:31.517Z,976.00
2018-06-17T04:12:31.507Z,948.00
2018-06-17T04:13:31.531Z,936.00
2018-06-17T04:14:31.481Z,964.00
2018-06-17T04:15:31.471Z,996.00
2018-06-17T04:16:31.452Z,992.00
2018-06-17T04:17:31.441Z,1020.00
2018-06-17T04:18:31.429Z,1068.00
2018-06-17T04:19:31.407Z,1128.00
2018-06-17T04:20:31.391Z,1176.00
2018-06-17T04:21:31.384Z,1204.00
2018-06-17T04:22:31.372Z,1228.00
2018-06-17T04:23:31.361Z,1252.00
2018-06-17T04:24:31.342Z,1280.00
2018-06-17T04:25:31.363Z,1348.00
2018-06-17T04:26:31.314Z,1388.00
2018-06-17T04:27:31.295Z,1448.00
2018-06-17T04:28:31.290Z,1520.00
2018-06-17T04:29:31.282Z,1576.00
2018-06-17T04:30:31.258Z,1604.00
2018-06-17T04:31:31.245Z,1588.00
2018-06-17T04:32:31.239Z,1584.00
2018-06-17T04:33:31.270Z,1668.00
2018-06-17T04:34:31.203Z,1748.00
2018-06-17T04:35:31.295Z,1756.00
2018-06-17T04:36:31.180Z,1772.00
2018-06-17T04:37:31.216Z,1748.00
2018-06-17T04:38:31.151Z,1716.00
2018-06-17T04:39:31.139Z,1644.00
2018-06-17T04:40:31.126Z,1568.00
2018-06-17T04:41:31.107Z,1552.00
2018-06-17T04:42:31.097Z,1652.00
2018-06-17T04:43:31.087Z,1780.00
2018-06-17T04:44:31.071Z,1856.00
2018-06-17T04:45:31.107Z,1936.00
2018-06-17T04:46:31.045Z,1972.00
2018-06-17T04:47:31.033Z,1880.00
2018-06-17T04:48:31.068Z,1768.00
2018-06-17T04:49:31.010Z,1752.00
2018-06-17T04:50:30.991Z,1760.00
2018-06-17T04:51:30.982Z,1700.00
2018-06-17T04:52:30.963Z,1644.00
2018-06-17T04:53:30.955Z,1616.00
2018-06-17T04:54:30.928Z,1660.00
2018-06-17T04:55:30.917Z,1896.00
2018-06-17T04:56:30.905Z,2184.00
2018-06-17T04:57:30.891Z,2152.00
2018-06-17T04:58:30.881Z,2044.00
2018-06-17T04:59:30.871Z,2304.00
2018-06-17T05:00:30.853Z,2484.00
2018-06-17T05:01:30.843Z,2596.00
2018-06-17T05:02:30.817Z,2668.00
2018-06-17T05:03:30.810Z,2592.00
2018-06-17T05:04:30.798Z,2492.00
2018-06-17T05:05:30.785Z,2320.00
2018-06-17T05:06:30.763Z,2256.00
2018-06-17T05:07:30.760Z,2260.00
2018-06-17T05:08:30.737Z,2340.00
2018-06-17T05:09:30.728Z,2500.00
2018-06-17T05:10:30.720Z,2644.00
2018-06-17T05:11:30.710Z,2548.00
2018-06-17T05:12:30.686Z,2460.00
2018-06-17T05:13:30.667Z,2368.00
2018-06-17T05:14:30.658Z,2268.00
2018-06-17T05:15:30.703Z,2076.00
2018-06-17T05:16:30.632Z,2252.00
2018-06-17T05:17:30.623Z,2236.00
2018-06-17T05:18:30.660Z,2360.00
2018-06-17T05:19:30.587Z,2428.00
2018-06-17T05:20:30.578Z,2468.00
2018-06-17T05:21:30.569Z,2484.00
2018-06-17T05:22:30.551Z,2472.00
2018-06-17T05:23:30.544Z,2448.00
2018-06-17T05:24:30.523Z,2428.00
2018-06-17T05:25:30.507Z,2428.00
2018-06-17T05:26:30.494Z,2436.00
2018-06-17T05:27:30.478Z,2444.00
2018-06-17T05:28:30.462Z,2468.00
2018-06-17T05:29:30.467Z,2484.00
2018-06-17T05:30:30.443Z,2500.00
2018-06-17T05:31:30.430Z,2516.00
2018-06-17T05:32:30.424Z,2536.00
2018-06-17T05:33:30.395Z,2540.00
2018-06-17T05:34:30.392Z,2544.00
2018-06-17T05:35:30.373Z,2560.00
2018-06-17T05:36:30.361Z,2592.00
2018-06-17T05:37:30.351Z,2604.00
2018-06-17T05:38:30.333Z,2608.00
2018-06-17T05:39:30.317Z,2604.00
2018-06-17T05:40:30.305Z,2628.00
2018-06-17T05:41:30.292Z,2700.00
2018-06-17T05:42:30.279Z,2748.00
2018-06-17T05:43:30.266Z,2792.00
2018-06-17T05:44:30.253Z,2824.00
2018-06-17T05:45:30.242Z,2860.00
2018-06-17T05:46:30.221Z,2896.00
2018-06-17T05:47:30.279Z,2936.00
2018-06-17T05:48:30.203Z,2964.00
2018-06-17T05:49:30.192Z,2984.00
2018-06-17T05:50:30.171Z,3004.00
2018-06-17T05:51:30.156Z,3028.00
2018-06-17T05:52:30.148Z,3040.00
2018-06-17T05:53:30.132Z,3096.00
2018-06-17T05:54:30.123Z,3136.00
2018-06-17T05:55:30.106Z,3172.00
2018-06-17T05:56:30.094Z,3200.00
2018-06-17T05:57:30.073Z,3216.00
2018-06-17T05:58:30.066Z,3204.00
2018-06-17T05:59:30.051Z,3280.00
2018-06-17T06:00:30.042Z,3468.00
2018-06-17T06:01:30.029Z,3544.00
2018-06-17T06:02:30.015Z,3580.00
2018-06-17T06:03:30.002Z,3604.00
2018-06-17T06:04:29.993Z,3656.00
2018-06-17T06:05:29.979Z,3700.00
2018-06-17T06:06:29.957Z,3780.00
2018-06-17T06:07:29.948Z,3832.00
2018-06-17T06:08:29.942Z,3864.00
2018-06-17T06:09:29.922Z,3904.00
2018-06-17T06:10:29.919Z,3736.00
2018-06-17T06:11:29.902Z,3532.00
2018-06-17T06:12:29.885Z,3620.00
2018-06-17T06:13:29.875Z,3792.00
2018-06-17T06:14:29.861Z,3928.00
2018-06-17T06:15:29.852Z,4000.00
2018-06-17T06:16:29.830Z,4088.00
2018-06-17T06:17:29.823Z,4152.00
2018-06-17T06:18:29.804Z,4160.00
2018-06-17T06:19:29.794Z,4156.00
2018-06-17T06:20:29.779Z,4152.00
2018-06-17T06:21:29.782Z,4252.00
2018-06-17T06:22:29.762Z,4328.00
2018-06-17T06:23:29.749Z,4372.00
2018-06-17T06:24:29.736Z,4400.00
2018-06-17T06:25:29.728Z,4400.00
2018-06-17T06:26:29.708Z,4324.00
2018-06-17T06:27:29.701Z,4304.00
2018-06-17T06:28:29.689Z,4260.00
2018-06-17T06:29:29.672Z,4292.00
2018-06-17T06:30:29.657Z,4384.00
2018-06-17T06:31:29.647Z,4360.00
2018-06-17T06:32:29.631Z,4484.00
2018-06-17T06:33:29.625Z,4720.00
2018-06-17T06:34:29.612Z,4856.00
2018-06-17T06:35:29.596Z,4928.00
2018-06-17T06:36:29.593Z,4968.00
2018-06-17T06:37:29.571Z,4944.00
2018-06-17T06:38:29.567Z,4920.00
2018-06-17T06:39:29.552Z,4872.00
2018-06-17T06:40:29.542Z,4840.00
2018-06-17T06:41:29.528Z,4844.00
2018-06-17T06:42:29.510Z,4784.00
2018-06-17T06:43:29.513Z,4840.00
2018-06-17T06:44:29.492Z,4904.00
2018-06-17T06:45:29.539Z,5060.00
2018-06-17T06:46:29.472Z,5196.00
2018-06-17T06:47:29.450Z,5156.00
2018-06-17T06:48:29.438Z,5224.00
2018-06-17T06:49:29.437Z,5284.00
2018-06-17T06:50:29.418Z,5220.00
2018-06-17T06:51:29.519Z,5180.00
2018-06-17T06:52:29.393Z,5272.00
2018-06-17T06:53:29.376Z,5528.00
2018-06-17T06:54:29.366Z,5644.00
2018-06-17T06:55:29.463Z,5812.00
2018-06-17T06:56:29.348Z,5812.00
2018-06-17T06:57:29.392Z,5852.00
2018-06-17T06:58:29.322Z,6172.00
2018-06-17T06:59:29.412Z,6044.00
2018-06-17T07:00:29.293Z,6060.00
2018-06-17T07:01:29.281Z,6292.00
2018-06-17T07:02:29.272Z,6160.00
2018-06-17T07:03:29.309Z,6260.00
2018-06-17T07:04:29.239Z,6252.00
2018-06-17T07:05:29.288Z,6000.00
2018-06-17T07:06:29.229Z,6336.00
2018-06-17T07:07:29.212Z,6660.00
2018-06-17T07:08:29.204Z,6616.00
2018-06-17T07:09:29.191Z,6844.00
2018-06-17T07:10:29.176Z,6968.00
2018-06-17T07:11:29.166Z,6948.00
2018-06-17T07:12:29.146Z,7044.00
2018-06-17T07:13:29.147Z,7148.00
2018-06-17T07:14:29.128Z,7256.00
2018-06-17T07:15:29.122Z,7252.00
2018-06-17T07:16:29.108Z,7484.00
2018-06-17T07:17:29.102Z,7240.00
2018-06-17T07:18:29.077Z,7492.00
2018-06-17T07:19:29.071Z,7536.00
2018-06-17T07:20:29.063Z,7588.00
2018-06-17T07:21:29.050Z,7644.00
2018-06-17T07:22:29.049Z,7932.00
2018-06-17T07:23:29.036Z,7680.00
2018-06-17T07:24:29.017Z,8016.00
2018-06-17T07:25:29.010Z,7984.00
2018-06-17T07:26:28.997Z,7952.00
2018-06-17T07:27:28.982Z,7828.00
2018-06-17T07:28:28.972Z,7792.00
2018-06-17T07:29:28.957Z,7940.00
2018-06-17T07:30:28.951Z,8068.00
2018-06-17T07:31:28.937Z,8148.00
2018-06-17T07:32:28.931Z,8304.00
2018-06-17T07:33:28.921Z,8560.00
2018-06-17T07:34:28.896Z,9036.00
2018-06-17T07:35:28.896Z,9032.00
2018-06-17T07:36:28.881Z,9436.00
2018-06-17T07:37:28.875Z,8616.00
2018-06-17T07:38:28.862Z,9000.00
2018-06-17T07:39:28.862Z,9072.00
2018-06-17T07:40:28.839Z,9368.00
2018-06-17T07:41:28.820Z,9428.00
2018-06-17T07:42:28.817Z,9300.00
2018-06-17T07:43:28.807Z,9440.00
2018-06-17T07:44:28.801Z,9572.00
2018-06-17T07:45:28.789Z,9496.00
2018-06-17T07:46:28.775Z,9420.00
2018-06-17T07:47:28.770Z,9352.00
2018-06-17T07:48:28.754Z,9428.00
2018-06-17T07:49:28.815Z,9040.00
2018-06-17T07:50:28.751Z,8136.00
2018-06-17T07:51:28.731Z,9272.00
2018-06-17T07:52:28.708Z,9900.00
2018-06-17T07:53:28.702Z,10080.00
2018-06-17T07:54:28.695Z,10052.00
2018-06-17T07:55:28.680Z,10336.00
2018-06-17T07:56:28.664Z,10264.00
2018-06-17T07:57:28.664Z,10544.00
2018-06-17T07:58:28.648Z,10776.00
2018-06-17T07:59:28.638Z,11268.00
2018-06-17T08:00:28.628Z,11272.00
2018-06-17T08:01:28.617Z,11124.00
2018-06-17T08:02:28.612Z,11060.00
2018-06-17T08:03:28.596Z,9616.00
2018-06-17T08:04:28.586Z,8820.00
2018-06-17T08:05:28.593Z,9632.00
2018-06-17T08:06:28.567Z,11108.00
2018-06-17T08:07:28.559Z,10668.00
2018-06-17T08:08:28.552Z,11556.00
2018-06-17T08:09:28.539Z,11140.00
2018-06-17T08:10:28.532Z,8348.00
2018-06-17T08:11:28.522Z,7736.00
2018-06-17T08:12:28.532Z,10516.00
2018-06-17T08:13:28.497Z,10976.00
2018-06-17T08:14:28.489Z,11580.00
2018-06-17T08:15:28.492Z,8768.00
2018-06-17T08:16:28.476Z,8520.00
2018-06-17T08:17:28.472Z,8400.00
2018-06-17T08:18:28.510Z,8492.00
2018-06-17T08:19:28.436Z,7856.00
2018-06-17T08:20:28.441Z,9524.00
2018-06-17T08:21:28.419Z,10244.00
2018-06-17T08:22:28.412Z,12192.00
2018-06-17T08:23:28.403Z,12784.00
2018-06-17T08:24:28.405Z,12484.00
2018-06-17T08:25:28.433Z,12116.00
2018-06-17T08:26:28.368Z,11632.00
2018-06-17T08:27:28.358Z,10516.00
2018-06-17T08:28:28.356Z,9640.00
2018-06-17T08:29:28.345Z,9940.00
2018-06-17T08:30:28.409Z,8604.00
2018-06-17T08:31:28.319Z,8928.00
2018-06-17T08:32:28.307Z,8088.00
2018-06-17T08:33:28.297Z,7320.00
2018-06-17T08:34:28.293Z,7900.00
2018-06-17T08:35:28.313Z,8576.00
2018-06-17T08:36:28.272Z,8288.00
2018-06-17T08:37:28.256Z,9036.00
2018-06-17T08:38:28.252Z,8564.00
2018-06-17T08:39:28.239Z,7532.00
2018-06-17T08:40:28.236Z,6540.00
2018-06-17T08:41:28.218Z,5824.00
2018-06-17T08:42:28.217Z,5420.00
2018-06-17T08:43:28.215Z,5844.00
2018-06-17T08:44:28.238Z,5352.00
2018-06-17T08:45:28.301Z,5592.00
2018-06-17T08:46:28.182Z,5072.00
2018-06-17T08:47:28.169Z,5332.00
2018-06-17T08:48:28.150Z,4676.00
2018-06-17T08:49:28.151Z,4516.00
2018-06-17T08:50:28.130Z,4816.00
2018-06-17T08:51:28.119Z,4752.00
2018-06-17T08:52:28.108Z,5476.00
2018-06-17T08:53:28.102Z,5776.00
2018-06-17T08:54:28.090Z,6340.00
2018-06-17T08:55:28.234Z,5632.00
2018-06-17T08:56:28.073Z,5880.00
2018-06-17T08:57:28.063Z,5468.00
2018-06-17T08:58:28.044Z,5516.00
2018-06-17T08:59:28.098Z,5816.00
2018-06-17T09:00:28.031Z,5984.00
2018-06-17T09:01:28.067Z,5332.00
2018-06-17T09:02:28.003Z,5164.00
2018-06-17T09:03:27.991Z,5244.00
2018-06-17T09:04:27.984Z,5280.00
2018-06-17T09:05:27.964Z,5760.00
2018-06-17T09:06:27.983Z,5892.00
2018-06-17T09:07:27.952Z,5496.00
2018-06-17T09:08:27.936Z,5584.00
2018-06-17T09:09:27.939Z,5604.00
2018-06-17T09:10:27.916Z,6468.00
2018-06-17T09:11:27.913Z,8336.00
2018-06-17T09:12:27.946Z,6732.00
2018-06-17T09:13:27.880Z,7600.00
2018-06-17T09:14:27.882Z,7636.00
2018-06-17T09:15:27.868Z,10604.00
2018-06-17T09:16:27.868Z,10268.00
2018-06-17T09:17:27.843Z,8400.00
2018-06-17T09:18:27.829Z,7064.00
2018-06-17T09:19:27.819Z,7740.00
2018-06-17T09:20:27.809Z,6724.00
2018-06-17T09:21:27.802Z,4680.00
2018-06-17T09:22:27.787Z,4460.00
2018-06-17T09:23:27.780Z,4304.00
2018-06-17T09:24:27.775Z,5220.00
2018-06-17T09:25:27.765Z,4404.00
2018-06-17T09:26:27.744Z,4088.00
2018-06-17T09:27:27.740Z,4396.00
2018-06-17T09:28:27.737Z,4364.00
2018-06-17T09:29:27.717Z,4596.00
2018-06-17T09:30:27.704Z,5700.00
2018-06-17T09:31:27.696Z,5696.00
2018-06-17T09:32:27.684Z,5612.00
2018-06-17T09:33:27.666Z,4368.00
2018-06-17T09:34:27.657Z,4680.00
2018-06-17T09:35:27.651Z,5208.00
2018-06-17T09:36:27.683Z,5708.00
2018-06-17T09:37:27.626Z,5760.00
2018-06-17T09:38:27.619Z,5460.00
2018-06-17T09:39:27.606Z,5500.00
2018-06-17T09:40:27.609Z,6784.00
2018-06-17T09:41:27.587Z,7948.00
2018-06-17T09:42:27.577Z,7860.00
2018-06-17T09:43:27.565Z,7812.00
2018-06-17T09:44:27.591Z,7856.00
2018-06-17T09:45:27.550Z,7256.00
2018-06-17T09:46:27.530Z,6568.00
2018-06-17T09:47:27.529Z,6196.00
2018-06-17T09:48:27.517Z,6132.00
2018-06-17T09:49:27.504Z,5924.00
2018-06-17T09:50:27.499Z,6612.00
2018-06-17T09:51:27.482Z,6668.00
2018-06-17T09:52:27.469Z,7816.00
2018-06-17T09:53:27.465Z,6196.00
2018-06-17T09:54:27.447Z,5656.00
2018-06-17T09:55:27.431Z,5876.00
2018-06-17T09:56:27.432Z,5752.00
2018-06-17T09:57:27.427Z,5608.00
2018-06-17T09:58:27.413Z,5220.00
2018-06-17T09:59:27.399Z,4984.00
2018-06-17T10:00:27.390Z,6356.00
2018-06-17T10:01:27.385Z,4672.00
2018-06-17T10:02:27.358Z,4548.00
2018-06-17T10:03:27.358Z,4940.00
2018-06-17T10:04:27.347Z,5088.00
2018-06-17T10:05:27.364Z,4660.00
2018-06-17T10:06:27.322Z,4748.00
2018-06-17T10:07:27.316Z,4752.00
2018-06-17T10:08:27.296Z,4124.00
2018-06-17T10:09:27.285Z,3624.00
2018-06-17T10:10:27.286Z,3592.00
2018-06-17T10:11:27.267Z,3776.00
2018-06-17T10:12:27.253Z,3916.00
2018-06-17T10:13:27.246Z,4176.00
2018-06-17T10:14:27.238Z,4716.00
2018-06-17T10:15:27.235Z,5676.00
2018-06-17T10:16:27.211Z,6384.00
2018-06-17T10:17:27.208Z,7140.00
2018-06-17T10:18:27.194Z,8612.00
2018-06-17T10:19:27.186Z,7392.00
2018-06-17T10:20:27.191Z,7428.00
2018-06-17T10:21:27.159Z,7148.00
2018-06-17T10:22:27.157Z,7352.00
2018-06-17T10:23:27.133Z,7204.00
2018-06-17T10:24:27.136Z,7236.00
2018-06-17T10:25:27.116Z,6936.00
2018-06-17T10:26:27.105Z,6604.00
2018-06-17T10:27:27.099Z,6668.00
2018-06-17T10:28:27.084Z,7132.00
2018-06-17T10:29:27.110Z,7192.00
2018-06-17T10:30:27.071Z,7320.00
2018-06-17T10:31:27.062Z,7064.00
2018-06-17T10:32:27.045Z,6656.00
2018-06-17T10:33:27.041Z,6340.00
2018-06-17T10:34:27.029Z,6280.00
2018-06-17T10:35:27.064Z,6012.00
2018-06-17T10:36:27.007Z,5648.00
2018-06-17T10:37:26.994Z,5256.00
2018-06-17T10:38:26.988Z,5432.00
2018-06-17T10:39:26.997Z,5796.00
2018-06-17T10:40:26.968Z,5892.00
2018-06-17T10:41:26.981Z,5576.00
2018-06-17T10:42:26.943Z,5260.00
2018-06-17T10:43:27.057Z,5004.00
2018-06-17T10:44:27.002Z,4532.00
2018-06-17T10:45:26.997Z,4332.00
2018-06-17T10:46:26.958Z,4524.00
2018-06-17T10:47:26.889Z,4584.00
2018-06-17T10:48:26.879Z,4448.00
2018-06-17T10:49:26.924Z,5436.00
2018-06-17T10:50:26.874Z,5488.00
2018-06-17T10:51:26.901Z,5732.00
2018-06-17T10:52:26.833Z,5664.00
2018-06-17T10:53:26.831Z,5848.00
2018-06-17T10:54:26.818Z,6068.00
2018-06-17T10:55:26.806Z,5784.00
2018-06-17T10:56:26.797Z,5824.00
2018-06-17T10:57:26.783Z,6180.00
2018-06-17T10:58:26.777Z,6040.00
2018-06-17T10:59:26.771Z,5948.00
2018-06-17T11:00:26.751Z,5996.00
2018-06-17T11:01:26.745Z,6200.00
2018-06-17T11:02:26.730Z,6184.00
2018-06-17T11:03:26.723Z,6044.00
2018-06-17T11:04:26.706Z,5580.00
2018-06-17T11:05:26.746Z,5688.00
2018-06-17T11:06:26.687Z,5732.00
2018-06-17T11:07:26.677Z,6304.00
2018-06-17T11:08:26.660Z,6872.00
2018-06-17T11:09:26.683Z,6456.00
2018-06-17T11:10:26.647Z,6236.00
2018-06-17T11:11:26.642Z,6256.00
2018-06-17T11:12:26.632Z,6420.00
2018-06-17T11:13:26.623Z,6068.00
2018-06-17T11:14:26.612Z,6036.00
2018-06-17T11:15:26.600Z,5936.00
2018-06-17T11:16:26.588Z,5748.00
2018-06-17T11:17:26.591Z,5552.00
2018-06-17T11:18:26.569Z,5172.00
2018-06-17T11:19:26.563Z,4696.00
2018-06-17T11:20:26.545Z,4632.00
2018-06-17T11:21:26.533Z,4364.00
2018-06-17T11:22:26.531Z,4112.00
2018-06-17T11:23:26.518Z,4140.00
2018-06-17T11:24:26.503Z,4240.00
2018-06-17T11:25:26.493Z,4072.00
2018-06-17T11:26:26.482Z,4144.00
2018-06-17T11:27:26.470Z,4132.00
2018-06-17T11:28:26.464Z,4472.00
2018-06-17T11:29:26.450Z,5144.00
2018-06-17T11:30:26.444Z,5444.00
2018-06-17T11:31:26.433Z,5740.00
2018-06-17T11:32:26.424Z,6188.00
2018-06-17T11:33:26.409Z,6096.00
2018-06-17T11:34:26.402Z,6544.00
2018-06-17T11:35:26.389Z,6888.00
2018-06-17T11:36:26.375Z,6708.00
2018-06-17T11:37:26.367Z,6248.00
2018-06-17T11:38:26.361Z,5744.00
2018-06-17T11:39:26.356Z,5316.00
2018-06-17T11:40:26.335Z,5512.00
2018-06-17T11:41:26.334Z,5252.00
2018-06-17T11:42:26.319Z,5200.00
2018-06-17T11:43:26.300Z,5492.00
2018-06-17T11:44:26.300Z,5272.00
2018-06-17T11:45:26.290Z,5040.00
2018-06-17T11:46:26.274Z,4520.00
2018-06-17T11:47:26.268Z,4632.00
2018-06-17T11:48:26.251Z,4408.00
2018-06-17T11:49:26.251Z,4220.00
2018-06-17T11:50:26.242Z,4260.00
2018-06-17T11:51:26.284Z,4464.00
2018-06-17T11:52:26.218Z,4752.00
2018-06-17T11:53:26.204Z,4896.00
2018-06-17T11:54:26.194Z,4952.00
2018-06-17T11:55:26.188Z,5140.00
2018-06-17T11:56:26.173Z,5556.00
2018-06-17T11:57:26.162Z,5764.00
2018-06-17T11:58:26.149Z,6128.00
2018-06-17T11:59:26.136Z,6180.00
2018-06-17T12:00:26.133Z,6204.00
2018-06-17T12:01:26.125Z,5988.00
2018-06-17T12:02:26.111Z,5988.00
2018-06-17T12:03:26.096Z,6012.00
2018-06-17T12:04:26.136Z,6224.00
2018-06-17T12:05:26.105Z,6600.00
2018-06-17T12:06:26.068Z,6864.00
2018-06-17T12:07:26.062Z,7476.00
2018-06-17T12:08:26.052Z,8060.00
2018-06-17T12:09:26.039Z,8308.00
2018-06-17T12:10:26.033Z,9348.00
2018-06-17T12:11:26.014Z,9080.00
2018-06-17T12:12:26.008Z,8920.00
2018-06-17T12:13:25.998Z,8352.00
2018-06-17T12:14:26.038Z,8328.00
2018-06-17T12:15:25.985Z,7668.00
2018-06-17T12:16:25.969Z,7508.00
2018-06-17T12:17:25.952Z,6892.00
2018-06-17T12:18:25.952Z,6820.00
2018-06-17T12:19:25.943Z,6740.00
2018-06-17T12:20:25.921Z,6560.00
2018-06-17T12:21:25.917Z,6140.00
2018-06-17T12:22:25.915Z,6352.00
2018-06-17T12:23:25.903Z,6352.00